createdAt,value
2018-01-12T00:01:37.253Z,39.12
2018-01-12T00:04:05.543Z,35.16
2018-01-12T00:06:33.804Z,39.56
2018-01-12T00:09:04.095Z,48.12
2018-01-12T00:11:32.375Z,39.88
2018-01-12T00:14:00.179Z,42.72
2018-01-12T00:16:29.089Z,50.54
2018-01-12T00:18:58.592Z,45.18
2018-01-12T00:21:26.850Z,46.34
2018-01-12T00:23:55.131Z,49.16
2018-01-12T00:26:23.417Z,45.34
2018-01-12T00:28:51.675Z,45.16
2018-01-12T00:31:19.963Z,55.14
2018-01-12T00:34:01.914Z,54.32
2018-01-12T00:36:30.175Z,51.34
2018-01-12T00:38:59.111Z,52.02
2018-01-12T00:41:28.607Z,58.08
2018-01-12T00:43:56.903Z,57.28
2018-01-12T00:46:25.175Z,61.44
2018-01-12T00:48:53.476Z,69.10
2018-01-12T00:51:21.734Z,70.70
2018-01-12T00:53:50.048Z,63.62
2018-01-12T00:56:25.066Z,69.96
2018-01-12T00:58:53.360Z,66.28
2018-01-12T01:01:21.679Z,67.72
2018-01-12T01:03:49.944Z,72.18
2018-01-12T01:06:21.567Z,82.34
2018-01-12T01:08:49.830Z,79.78
2018-01-12T01:11:32.064Z,82.70
2018-01-12T01:14:00.318Z,66.70
2018-01-12T01:16:28.499Z,77.84
2018-01-12T01:19:00.450Z,79.46
2018-01-12T01:21:29.387Z,75.72
2018-01-12T01:23:56.898Z,82.96
2018-01-12T01:26:25.159Z,71.70
2018-01-12T01:28:53.448Z,66.64
2018-01-12T01:31:21.702Z,74.56
2018-01-12T01:33:53.623Z,68.66
2018-01-12T01:36:21.918Z,71.68
2018-01-12T01:38:50.175Z,61.64
2018-01-12T01:41:18.468Z,75.68
2018-01-12T01:43:46.737Z,75.22
2018-01-12T01:46:15.022Z,67.88
2018-01-12T01:48:43.274Z,72.00
2018-01-12T01:51:11.563Z,68.48
2018-01-12T01:53:39.818Z,67.12
2018-01-12T01:56:21.590Z,64.44
2018-01-12T01:58:49.878Z,66.08
2018-01-12T02:01:24.186Z,60.42
2018-01-12T02:03:52.469Z,62.00
2018-01-12T02:06:20.732Z,72.16
2018-01-12T02:08:49.018Z,65.56
2018-01-12T02:11:17.427Z,69.72
2018-01-12T02:13:45.683Z,88.52
2018-01-12T02:16:32.893Z,78.70
2018-01-12T02:19:01.164Z,74.14
2018-01-12T02:21:30.039Z,63.88
2018-01-12T02:23:59.062Z,77.52
2018-01-12T02:26:28.038Z,76.46
2018-01-12T02:28:56.380Z,63.06
2018-01-12T02:31:24.615Z,74.04
2018-01-12T02:33:52.878Z,68.58
2018-01-12T02:36:21.157Z,72.42
2018-01-12T02:38:49.435Z,87.74
2018-01-12T02:41:17.728Z,77.28
2018-01-12T02:43:46.013Z,79.74
2018-01-12T02:46:14.271Z,86.86
2018-01-12T02:48:46.413Z,89.68
2018-01-12T02:51:14.682Z,74.20
2018-01-12T02:53:42.972Z,85.50
2018-01-12T02:56:11.223Z,86.44
2018-01-12T02:58:39.506Z,99.66
2018-01-12T03:01:07.773Z,93.56
2018-01-12T03:03:37.019Z,80.04
2018-01-12T03:06:05.269Z,96.36
2018-01-12T03:08:33.527Z,96.30
2018-01-12T03:11:01.810Z,87.48
2018-01-12T03:13:47.272Z,83.00
2018-01-12T03:16:15.558Z,84.56
2018-01-12T03:18:43.809Z,85.22
2018-01-12T03:21:18.146Z,83.08
2018-01-12T03:23:46.413Z,75.18
2018-01-12T03:26:14.698Z,82.08
2018-01-12T03:28:42.972Z,71.14
2018-01-12T03:31:11.269Z,90.96
2018-01-12T03:33:39.544Z,79.16
2018-01-12T03:36:07.821Z,83.70
2018-01-12T03:38:42.145Z,71.32
2018-01-12T03:41:10.400Z,78.22
2018-01-12T03:43:38.694Z,68.74
2018-01-12T03:46:06.966Z,65.78
2018-01-12T03:48:35.249Z,62.46
2018-01-12T03:51:02.734Z,65.68
2018-01-12T03:53:31.028Z,52.84
2018-01-12T03:56:00.129Z,66.64
2018-01-12T03:58:29.139Z,67.90
2018-01-12T04:00:58.111Z,60.76
2018-01-12T04:03:26.411Z,82.86
2018-01-12T04:05:54.698Z,76.30
2018-01-12T04:08:22.966Z,74.66
2018-01-12T04:10:51.250Z,66.02
2018-01-12T04:13:19.524Z,56.48
2018-01-12T04:15:47.817Z,60.30
2018-01-12T04:18:26.656Z,47.82
2018-01-12T04:20:54.945Z,63.90
2018-01-12T04:23:22.440Z,50.46
2018-01-12T04:25:50.754Z,54.06
2018-01-12T04:28:19.024Z,49.70
2018-01-12T04:30:47.300Z,41.92
2018-01-12T04:33:15.594Z,52.54
2018-01-12T04:35:43.864Z,51.54
2018-01-12T04:38:12.185Z,59.64
2018-01-12T04:40:40.430Z,60.22
2018-01-12T04:43:08.722Z,47.06
2018-01-12T04:45:37.029Z,50.54
2018-01-12T04:48:05.296Z,49.94
2018-01-12T04:50:33.599Z,48.58
2018-01-12T04:53:01.872Z,55.18
2018-01-12T04:55:38.600Z,61.10
2018-01-12T04:58:06.866Z,49.92
2018-01-12T05:00:35.140Z,50.74
2018-01-12T05:03:03.443Z,65.56
2018-01-12T05:05:31.721Z,49.04
2018-01-12T05:08:00.195Z,58.42
2018-01-12T05:10:28.801Z,51.82
2018-01-12T05:12:57.059Z,61.74
2018-01-12T05:15:25.362Z,53.62
2018-01-12T05:17:53.674Z,50.80
2018-01-12T05:20:21.980Z,48.46
2018-01-12T05:22:50.306Z,51.64
2018-01-12T05:25:20.506Z,54.40
2018-01-12T05:27:48.820Z,55.56
2018-01-12T05:30:17.090Z,59.94
2018-01-12T05:32:45.354Z,55.70
2018-01-12T05:35:13.643Z,55.22
2018-01-12T05:40:39.073Z,59.78
2018-01-12T05:43:07.363Z,65.14
2018-01-12T05:45:35.656Z,67.82
2018-01-12T05:48:03.947Z,67.02
2018-01-12T05:50:32.210Z,59.02
2018-01-12T05:53:00.497Z,57.40
2018-01-12T05:55:29.209Z,63.42
2018-01-12T05:57:58.188Z,63.58
2018-01-12T06:00:26.470Z,71.40
2018-01-12T06:06:05.505Z,53.32
2018-01-12T06:08:33.901Z,60.34
2018-01-12T06:11:07.514Z,59.68
2018-01-12T06:13:35.836Z,63.38
2018-01-12T06:19:03.206Z,75.42
2018-01-12T06:21:31.470Z,56.84
2018-01-12T06:24:00.133Z,56.72
2018-01-12T06:26:29.003Z,59.76
2018-01-12T06:28:58.413Z,57.86
2018-01-12T06:31:26.688Z,66.48
2018-01-12T06:33:54.998Z,60.14
2018-01-12T06:36:23.268Z,62.50
2018-01-12T06:38:51.531Z,56.94
2018-01-12T06:41:19.814Z,60.10
2018-01-12T06:44:05.326Z,55.84
2018-01-12T06:46:33.633Z,58.72
2018-01-12T06:49:01.922Z,55.06
2018-01-12T06:51:40.229Z,55.34
2018-01-12T06:54:08.514Z,57.70
2018-01-12T06:56:36.792Z,67.24
2018-01-12T06:59:05.087Z,65.52
2018-01-12T07:01:33.333Z,61.32
2018-01-12T07:04:01.627Z,61.40
2018-01-12T07:06:30.108Z,56.72
2018-01-12T07:08:59.134Z,73.68
2018-01-12T07:11:28.094Z,56.84
2018-01-12T07:13:56.381Z,55.44
2018-01-12T07:16:24.646Z,56.54
2018-01-12T07:18:52.935Z,64.44
2018-01-12T07:21:33.030Z,78.52
2018-01-12T07:24:01.286Z,65.32
2018-01-12T07:26:39.432Z,69.28
2018-01-12T07:29:07.689Z,82.98
2018-01-12T07:31:36.924Z,71.68
2018-01-12T07:34:05.194Z,67.42
2018-01-12T07:36:33.459Z,70.20
2018-01-12T07:39:01.746Z,71.54
2018-01-12T07:41:30.156Z,68.86
2018-01-12T07:43:58.966Z,66.76
2018-01-12T07:46:27.257Z,75.06
2018-01-12T07:48:55.510Z,69.44
2018-01-12T07:51:23.789Z,62.92
2018-01-12T07:53:52.054Z,55.72
2018-01-12T07:56:20.346Z,61.26
2018-01-12T07:58:48.629Z,54.62
2018-01-12T08:01:22.662Z,58.34
2018-01-12T08:06:44.717Z,66.04
2018-01-12T08:09:12.997Z,61.70
2018-01-12T08:11:41.292Z,58.74
2018-01-12T08:14:09.589Z,63.14
2018-01-12T08:16:37.845Z,56.52
2018-01-12T08:19:09.593Z,56.34
2018-01-12T08:21:37.865Z,64.10
2018-01-12T08:24:08.181Z,56.34
2018-01-12T08:26:36.436Z,61.50
2018-01-12T08:29:18.461Z,58.12
2018-01-12T08:31:46.767Z,63.42
2018-01-12T08:34:15.026Z,67.86
2018-01-12T08:36:43.296Z,62.32
2018-01-12T08:39:11.577Z,67.76
2018-01-12T08:41:39.871Z,63.62
2018-01-12T08:44:13.425Z,69.66
2018-01-12T08:46:41.670Z,67.70
2018-01-12T08:49:09.980Z,65.88
2018-01-12T08:51:38.254Z,77.94
2018-01-12T08:54:06.539Z,58.78
2018-01-12T08:56:34.814Z,75.38
2018-01-12T08:59:03.066Z,82.54
2018-01-12T09:01:31.354Z,66.82
2018-01-12T09:04:00.072Z,73.70
2018-01-12T09:06:29.257Z,84.04
2018-01-12T09:08:58.282Z,82.00
2018-01-12T09:11:26.576Z,83.54
2018-01-12T09:13:58.429Z,78.94
2018-01-12T09:16:28.011Z,84.44
2018-01-12T09:19:08.158Z,86.20
2018-01-12T09:21:36.449Z,80.50
2018-01-12T09:24:16.489Z,85.18
2018-01-12T09:26:44.777Z,86.32
2018-01-12T09:29:13.031Z,97.96
2018-01-12T09:31:43.118Z,80.56
2018-01-12T09:34:23.260Z,82.90
2018-01-12T09:36:51.549Z,84.46
2018-01-12T09:39:31.562Z,87.44
2018-01-12T09:42:00.173Z,98.70
2018-01-12T09:44:28.778Z,92.56
2018-01-12T09:47:17.759Z,86.24
2018-01-12T09:49:47.725Z,93.22
2018-01-12T09:52:16.010Z,90.66
2018-01-12T09:54:44.266Z,90.78
2018-01-12T09:57:12.553Z,81.48
2018-01-12T09:59:43.425Z,92.04
2018-01-12T10:02:11.703Z,84.02
2018-01-12T10:04:39.997Z,80.06
2018-01-12T10:07:19.855Z,80.66
2018-01-12T10:09:48.193Z,87.86
2018-01-12T10:12:16.406Z,73.70
2018-01-12T10:14:43.925Z,84.64
2018-01-12T10:17:12.195Z,85.10
2018-01-12T10:20:01.922Z,74.74
2018-01-12T10:22:30.180Z,95.16
2018-01-12T10:24:58.872Z,79.56
2018-01-12T10:27:27.157Z,90.74
2018-01-12T10:29:58.034Z,76.84
2018-01-12T10:32:38.171Z,78.98
2018-01-12T10:35:18.230Z,92.78
2018-01-12T10:37:46.493Z,72.64
2018-01-12T10:40:26.773Z,84.78
2018-01-12T10:42:55.034Z,79.18
2018-01-12T10:45:24.101Z,61.30
2018-01-12T10:47:52.353Z,76.32
2018-01-12T10:50:23.397Z,84.92
2018-01-12T10:52:51.641Z,72.96
2018-01-12T10:55:22.936Z,66.46
2018-01-12T10:57:51.193Z,64.22
2018-01-12T11:00:25.277Z,64.94
2018-01-12T11:02:53.544Z,59.02
2018-01-12T11:05:21.814Z,64.60
2018-01-12T11:07:50.092Z,67.52
2018-01-12T11:10:18.365Z,63.42
2018-01-12T11:12:46.633Z,64.60
2018-01-12T11:15:14.917Z,66.90
2018-01-12T11:17:43.213Z,71.46
2018-01-12T11:20:11.461Z,81.30
2018-01-12T11:22:39.706Z,76.18
2018-01-12T11:25:07.989Z,74.82
2018-01-12T11:27:36.311Z,82.56
2018-01-12T11:30:04.561Z,79.54
2018-01-12T11:32:32.854Z,86.36
2018-01-12T11:35:01.137Z,87.24
2018-01-12T11:37:30.089Z,95.82
2018-01-12T11:39:59.109Z,119.66
2018-01-12T11:42:28.126Z,104.50
2018-01-12T11:44:56.396Z,112.54
2018-01-12T11:47:28.652Z,88.86
2018-01-12T11:49:56.910Z,107.26
2018-01-12T11:52:25.171Z,98.50
2018-01-12T11:54:53.454Z,98.90
2018-01-12T11:57:21.743Z,99.98
2018-01-12T12:00:12.929Z,106.38
2018-01-12T12:02:41.244Z,115.52
2018-01-12T12:05:09.519Z,106.44
2018-01-12T12:07:37.827Z,104.50
2018-01-12T12:10:06.093Z,110.14
2018-01-12T12:12:41.444Z,89.10
2018-01-12T12:15:09.712Z,105.74
2018-01-12T12:17:37.982Z,111.54
2018-01-12T12:20:06.262Z,135.74
2018-01-12T12:22:34.569Z,128.08
2018-01-12T12:25:02.875Z,138.42
2018-01-12T12:27:31.137Z,141.38
2018-01-12T12:29:59.989Z,151.10
2018-01-12T12:32:29.145Z,160.56
2018-01-12T12:34:58.188Z,147.28
2018-01-12T12:37:26.456Z,137.82
2018-01-12T12:39:54.750Z,141.40
2018-01-12T12:42:23.060Z,147.96
2018-01-12T12:44:51.324Z,138.14
2018-01-12T12:47:18.827Z,129.30
2018-01-12T12:49:47.112Z,159.50
2018-01-12T12:52:15.369Z,132.82
2018-01-12T12:54:43.657Z,141.20
2018-01-12T12:57:11.909Z,142.86
2018-01-12T13:02:53.981Z,120.32
2018-01-12T13:05:22.246Z,110.40
2018-01-12T13:07:50.530Z,90.54
2018-01-12T13:10:18.823Z,89.34
2018-01-12T13:12:46.332Z,81.42
2018-01-12T13:15:14.635Z,92.86
2018-01-12T13:17:42.888Z,88.34
2018-01-12T13:20:11.166Z,86.24
2018-01-12T13:22:39.413Z,79.14
2018-01-12T13:25:07.813Z,91.46
2018-01-12T13:27:53.084Z,74.36
2018-01-12T13:30:21.364Z,95.90
2018-01-12T13:32:49.616Z,86.74
2018-01-12T13:35:17.919Z,76.16
2018-01-12T13:37:46.228Z,79.38
2018-01-12T13:40:14.477Z,74.78
2018-01-12T13:42:42.782Z,65.28
2018-01-12T13:45:11.041Z,75.14
2018-01-12T13:47:39.342Z,69.60
2018-01-12T13:50:07.641Z,85.36
2018-01-12T13:52:46.377Z,68.70
2018-01-12T13:55:14.684Z,75.70
2018-01-12T13:57:42.948Z,72.54
2018-01-12T14:00:11.266Z,54.56
2018-01-12T14:02:39.513Z,74.52
2018-01-12T14:05:07.766Z,58.84
2018-01-12T14:07:36.045Z,72.06
2018-01-12T14:10:04.330Z,66.46
2018-01-12T14:12:32.594Z,67.76
2018-01-12T14:15:00.854Z,60.32
2018-01-12T14:17:35.793Z,72.74
2018-01-12T14:20:04.069Z,73.52
2018-01-12T14:22:32.319Z,57.26
2018-01-12T14:25:00.600Z,66.76
2018-01-12T14:27:29.636Z,76.78
2018-01-12T14:29:58.650Z,56.16
2018-01-12T14:32:47.636Z,64.54
2018-01-12T14:35:15.897Z,74.16
2018-01-12T14:37:44.181Z,66.54
2018-01-12T14:40:12.442Z,87.46
2018-01-12T14:42:40.705Z,66.08
2018-01-12T14:45:08.993Z,72.24
2018-01-12T14:47:37.300Z,77.10
2018-01-12T14:50:05.553Z,81.06
2018-01-12T14:52:33.810Z,77.70
2018-01-12T14:55:10.472Z,80.12
2018-01-12T14:57:38.725Z,75.84
2018-01-12T15:00:07.022Z,79.34
2018-01-12T15:02:35.285Z,83.16
2018-01-12T15:05:03.589Z,85.26
2018-01-12T15:07:31.845Z,71.36
2018-01-12T15:10:10.199Z,78.34
2018-01-12T15:12:38.458Z,82.96
2018-01-12T15:15:06.737Z,71.60
2018-01-12T15:17:34.994Z,88.28
2018-01-12T15:20:03.278Z,87.10
2018-01-12T15:22:31.533Z,189.06
2018-01-12T15:25:00.145Z,86.36
2018-01-12T15:27:29.085Z,84.60
2018-01-12T15:29:58.166Z,81.10
2018-01-12T15:32:26.450Z,104.82
2018-01-12T15:34:54.701Z,85.60
2018-01-12T15:37:22.982Z,87.14
2018-01-12T15:39:51.234Z,86.04
2018-01-12T15:42:19.532Z,93.86
2018-01-12T15:44:47.777Z,102.08
2018-01-12T15:47:15.297Z,93.16
2018-01-12T15:49:43.564Z,94.38
2018-01-12T15:52:11.853Z,99.36
2018-01-12T15:54:47.313Z,93.26
2018-01-12T15:57:15.624Z,101.56
2018-01-12T15:59:43.881Z,100.42
2018-01-12T16:05:08.793Z,100.80
2018-01-12T16:07:37.045Z,99.98
2018-01-12T16:10:04.553Z,90.28
2018-01-12T16:12:32.858Z,96.42
2018-01-12T16:15:01.138Z,93.76
2018-01-12T16:17:30.039Z,101.88
2018-01-12T16:19:58.941Z,92.16
2018-01-12T16:22:27.196Z,89.76
2018-01-12T16:24:55.449Z,103.54
2018-01-12T16:27:23.724Z,83.08
2018-01-12T16:29:52.005Z,98.92
2018-01-12T16:32:20.269Z,92.36
2018-01-12T16:34:48.514Z,89.40
2018-01-12T16:37:16.816Z,97.28
2018-01-12T16:39:45.068Z,112.60
2018-01-12T16:42:13.364Z,104.72
2018-01-12T16:44:41.628Z,88.64
2018-01-12T16:47:09.894Z,100.48
2018-01-12T16:49:38.155Z,93.26
2018-01-12T16:52:06.450Z,91.42
2018-01-12T16:54:33.952Z,89.46
2018-01-12T16:57:11.942Z,74.78
2018-01-12T16:59:40.189Z,90.36
2018-01-12T17:02:07.700Z,88.86
2018-01-12T17:04:35.978Z,99.70
2018-01-12T17:07:04.233Z,105.64
2018-01-12T17:09:32.506Z,97.44
2018-01-12T17:12:00.867Z,102.92
2018-01-12T17:14:29.992Z,94.36
2018-01-12T17:16:58.989Z,107.90
2018-01-12T17:19:28.529Z,109.54
2018-01-12T17:21:56.775Z,104.12
2018-01-12T17:24:25.079Z,108.62
2018-01-12T17:26:53.329Z,117.22
2018-01-12T17:29:21.637Z,127.20
2018-01-12T17:32:03.858Z,105.48
2018-01-12T17:34:32.164Z,104.60
2018-01-12T17:37:00.148Z,133.78
2018-01-12T17:39:28.797Z,120.16
2018-01-12T17:41:57.100Z,132.68
2018-01-12T17:44:25.377Z,133.60
2018-01-12T17:46:53.658Z,129.60
2018-01-12T17:49:34.993Z,112.66
2018-01-12T17:52:02.526Z,116.20
2018-01-12T17:54:30.803Z,118.60
2018-01-12T17:57:00.007Z,107.36
2018-01-12T17:59:28.881Z,123.26
2018-01-12T18:01:57.169Z,129.32
2018-01-12T18:04:25.459Z,124.80
2018-01-12T18:06:53.709Z,142.24
2018-01-12T18:09:23.923Z,149.96
2018-01-12T18:11:52.269Z,138.66
2018-01-12T18:14:20.552Z,130.06
2018-01-12T18:16:48.832Z,146.02
2018-01-12T18:19:17.113Z,144.58
2018-01-12T18:21:45.376Z,152.56
2018-01-12T18:24:13.658Z,145.46
2018-01-12T18:26:58.970Z,131.80
2018-01-12T18:29:27.242Z,152.28
2018-01-12T18:31:55.528Z,125.26
2018-01-12T18:34:23.804Z,148.56
2018-01-12T18:36:53.044Z,143.96
2018-01-12T18:39:21.329Z,135.86
2018-01-12T18:41:49.617Z,150.38
2018-01-12T18:44:17.906Z,131.00
2018-01-12T18:46:46.215Z,138.74
2018-01-12T18:49:14.474Z,141.60
2018-01-12T18:51:42.769Z,142.38
2018-01-12T18:54:11.027Z,126.62
2018-01-12T18:56:39.301Z,125.00
2018-01-12T18:59:07.578Z,139.20
2018-01-12T19:01:35.880Z,146.62
2018-01-12T19:04:05.080Z,110.86
2018-01-12T19:06:33.364Z,123.28
2018-01-12T19:09:01.664Z,135.90
2018-01-12T19:11:30.061Z,123.88
2018-01-12T19:13:59.025Z,140.06
2018-01-12T19:16:28.571Z,134.66
2018-01-12T19:18:56.854Z,125.02
2018-01-12T19:21:25.101Z,115.52
2018-01-12T19:23:53.398Z,138.78
2018-01-12T19:26:21.666Z,135.86
2018-01-12T19:28:49.925Z,126.34
2018-01-12T19:31:25.316Z,125.30
2018-01-12T19:33:53.612Z,113.16
2018-01-12T19:36:21.912Z,126.98
2018-01-12T19:38:57.177Z,132.66
2018-01-12T19:41:25.454Z,137.76
2018-01-12T19:43:53.714Z,150.34
2018-01-12T19:46:22.013Z,145.18
2018-01-12T19:48:50.316Z,124.90
2018-01-12T19:51:18.565Z,136.86
2018-01-12T19:53:46.871Z,140.94
2018-01-12T19:56:15.172Z,144.72
2018-01-12T19:58:43.436Z,147.20
2018-01-12T20:01:11.726Z,129.96
2018-01-12T20:03:53.725Z,133.78
2018-01-12T20:06:21.974Z,152.76
2018-01-12T20:08:58.582Z,131.64
2018-01-12T20:11:26.866Z,135.98
2018-01-12T20:13:55.136Z,153.06
2018-01-12T20:16:23.545Z,145.56
2018-01-12T20:18:51.798Z,147.00
2018-01-12T20:21:20.047Z,146.72
2018-01-12T20:23:48.333Z,144.82
2018-01-12T20:26:20.044Z,132.66
2018-01-12T20:28:48.335Z,133.38
2018-01-12T20:31:20.263Z,152.68
2018-01-12T20:33:48.592Z,157.38
2018-01-12T20:36:16.847Z,156.92
2018-01-12T20:38:45.187Z,134.30
2018-01-12T20:41:12.678Z,145.62
2018-01-12T20:43:41.039Z,148.94
2018-01-12T20:46:09.331Z,153.86
2018-01-12T20:48:37.624Z,167.18
2018-01-12T20:51:05.924Z,169.62
2018-01-12T20:53:39.430Z,165.22
2018-01-12T20:56:15.748Z,183.24
2018-01-12T20:58:44.059Z,172.24
2018-01-12T21:01:12.550Z,148.64
2018-01-12T21:03:40.839Z,155.74
2018-01-12T21:06:09.125Z,172.44
2018-01-12T21:08:37.421Z,165.40
2018-01-12T21:11:05.717Z,164.50
2018-01-12T21:13:34.957Z,154.34
2018-01-12T21:16:03.200Z,192.14
2018-01-12T21:18:31.555Z,165.84
2018-01-12T21:21:00.117Z,180.50
2018-01-12T21:23:28.968Z,173.70
2018-01-12T21:25:57.229Z,198.94
2018-01-12T21:28:25.644Z,161.40
2018-01-12T21:30:53.928Z,157.04
2018-01-12T21:33:23.178Z,149.62
2018-01-12T21:35:51.466Z,156.44
2018-01-12T21:38:19.756Z,143.46
2018-01-12T21:41:09.202Z,155.78
2018-01-12T21:43:37.498Z,166.84
2018-01-12T21:46:05.801Z,140.36
2018-01-12T21:48:35.029Z,181.22
2018-01-12T21:51:03.294Z,153.20
2018-01-12T21:53:31.627Z,135.64
2018-01-12T21:56:00.190Z,150.02
2018-01-12T21:58:28.885Z,162.40
2018-01-12T22:00:57.149Z,131.40
2018-01-12T22:03:25.406Z,149.86
2018-01-12T22:05:53.708Z,145.36
2018-01-12T22:08:22.965Z,150.94
2018-01-12T22:10:51.249Z,160.66
2018-01-12T22:13:19.502Z,153.72
2018-01-12T22:15:47.799Z,143.92
2018-01-12T22:18:24.660Z,149.00
2018-01-12T22:20:52.904Z,138.22
2018-01-12T22:23:21.184Z,152.60
2018-01-12T22:25:49.437Z,138.80
2018-01-12T22:28:17.737Z,141.54
2018-01-12T22:30:46.037Z,150.92
2018-01-12T22:33:14.290Z,162.32
2018-01-12T22:35:42.556Z,143.76
2018-01-12T22:38:10.863Z,157.52
2018-01-12T22:40:39.120Z,150.90
2018-01-12T22:43:07.408Z,157.56
2018-01-12T22:45:35.701Z,149.92
2018-01-12T22:48:03.951Z,160.30
2018-01-12T22:50:33.267Z,131.30
2018-01-12T22:53:01.548Z,140.38
2018-01-12T22:55:30.087Z,141.60
2018-01-12T22:57:59.088Z,145.72
2018-01-12T23:00:28.161Z,151.16
2018-01-12T23:02:56.466Z,148.46
2018-01-12T23:05:24.718Z,134.58
2018-01-12T23:07:52.969Z,120.02
2018-01-12T23:10:21.294Z,118.34
2018-01-12T23:12:49.542Z,139.24
2018-01-12T23:15:17.054Z,131.92
2018-01-12T23:17:45.304Z,145.32
2018-01-12T23:20:13.627Z,145.14
2018-01-12T23:22:41.918Z,130.04
2018-01-12T23:25:23.216Z,142.64
2018-01-12T23:27:51.464Z,150.12
2018-01-12T23:30:19.709Z,151.50
2018-01-12T23:32:48.004Z,135.74
2018-01-12T23:35:16.253Z,152.26
2018-01-12T23:37:44.533Z,143.06
2018-01-12T23:40:12.833Z,143.54
2018-01-12T23:42:41.089Z,144.88
2018-01-12T23:45:09.416Z,121.42
2018-01-12T23:47:37.716Z,126.26
2018-01-12T23:50:06.929Z,131.54
2018-01-12T23:52:35.186Z,125.16
2018-01-12T23:55:03.498Z,126.94
2018-01-12T23:57:31.748Z,123.20
